sensor_id;sensor_type;location;lat;lon;timestamp;temperature;humidity
46309;DHT22;32037;50.820;6.494;2022-10-01T00:02:19;14.70;58.90
46309;DHT22;32037;50.820;6.494;2022-10-01T00:04:48;14.70;58.90
46309;DHT22;32037;50.820;6.494;2022-10-01T00:07:16;14.70;58.90
46309;DHT22;32037;50.820;6.494;2022-10-01T00:09:45;14.70;58.90
46309;DHT22;32037;50.820;6.494;2022-10-01T00:12:14;14.70;58.90
46309;DHT22;32037;50.820;6.494;2022-10-01T00:14:44;14.70;58.90
46309;DHT22;32037;50.820;6.494;2022-10-01T00:17:12;14.70;58.90
46309;DHT22;32037;50.820;6.494;2022-10-01T00:19:41;14.70;58.90
46309;DHT22;32037;50.820;6.494;2022-10-01T00:22:09;14.70;58.90
46309;DHT22;32037;50.820;6.494;2022-10-01T00:24:37;14.70;58.90
46309;DHT22;32037;50.820;6.494;2022-10-01T00:27:06;14.70;58.90
46309;DHT22;32037;50.820;6.494;2022-10-01T00:29:36;14.60;59.90
46309;DHT22;32037;50.820;6.494;2022-10-01T00:32:06;14.70;58.90
46309;DHT22;32037;50.820;6.494;2022-10-01T00:34:36;14.70;58.90
46309;DHT22;32037;50.820;6.494;2022-10-01T00:37:04;14.70;58.90
46309;DHT22;32037;50.820;6.494;2022-10-01T00:39:32;14.70;59.10
46309;DHT22;32037;50.820;6.494;2022-10-01T00:42:01;14.70;59.40
46309;DHT22;32037;50.820;6.494;2022-10-01T00:44:32;14.70;59.60
46309;DHT22;32037;50.820;6.494;2022-10-01T00:47:08;14.70;59.50
46309;DHT22;32037;50.820;6.494;2022-10-01T00:49:41;14.70;59.50
46309;DHT22;32037;50.820;6.494;2022-10-01T00:52:13;14.70;59.40
46309;DHT22;32037;50.820;6.494;2022-10-01T00:54:46;14.70;59.70
46309;DHT22;32037;50.820;6.494;2022-10-01T00:57:19;14.60;59.40
46309;DHT22;32037;50.820;6.494;2022-10-01T00:59:49;14.70;59.10
46309;DHT22;32037;50.820;6.494;2022-10-01T01:02:20;14.70;59.60
46309;DHT22;32037;50.820;6.494;2022-10-01T01:04:49;14.60;59.60
46309;DHT22;32037;50.820;6.494;2022-10-01T01:07:18;14.70;60.10
46309;DHT22;32037;50.820;6.494;2022-10-01T01:09:48;14.60;60.00
46309;DHT22;32037;50.820;6.494;2022-10-01T01:12:32;14.60;59.50
46309;DHT22;32037;50.820;6.494;2022-10-01T01:15:13;14.60;59.90
46309;DHT22;32037;50.820;6.494;2022-10-01T01:17:53;14.60;60.00
46309;DHT22;32037;50.820;6.494;2022-10-01T01:20:46;14.60;59.80
46309;DHT22;32037;50.820;6.494;2022-10-01T01:26:35;14.60;59.80
46309;DHT22;32037;50.820;6.494;2022-10-01T01:29:12;14.60;60.00
46309;DHT22;32037;50.820;6.494;2022-10-01T01:31:45;14.60;60.00
46309;DHT22;32037;50.820;6.494;2022-10-01T01:34:17;14.60;59.90
46309;DHT22;32037;50.820;6.494;2022-10-01T01:36:52;14.60;60.00
46309;DHT22;32037;50.820;6.494;2022-10-01T01:39:24;14.60;61.10
46309;DHT22;32037;50.820;6.494;2022-10-01T01:41:55;14.60;59.90
46309;DHT22;32037;50.820;6.494;2022-10-01T01:44:29;14.60;60.00
46309;DHT22;32037;50.820;6.494;2022-10-01T01:47:00;14.60;59.80
46309;DHT22;32037;50.820;6.494;2022-10-01T01:49:29;14.60;60.30
46309;DHT22;32037;50.820;6.494;2022-10-01T01:52:02;14.60;60.10
46309;DHT22;32037;50.820;6.494;2022-10-01T01:54:33;14.60;60.10
46309;DHT22;32037;50.820;6.494;2022-10-01T01:57:02;14.60;59.90
46309;DHT22;32037;50.820;6.494;2022-10-01T01:59:33;14.60;60.10
46309;DHT22;32037;50.820;6.494;2022-10-01T02:02:02;14.60;60.10
46309;DHT22;32037;50.820;6.494;2022-10-01T02:04:36;14.60;60.00
46309;DHT22;32037;50.820;6.494;2022-10-01T02:10:32;14.60;59.80
46309;DHT22;32037;50.820;6.494;2022-10-01T02:13:13;14.60;60.30
46309;DHT22;32037;50.820;6.494;2022-10-01T02:15:55;14.60;60.00
46309;DHT22;32037;50.820;6.494;2022-10-01T02:18:32;14.60;59.90
46309;DHT22;32037;50.820;6.494;2022-10-01T02:21:08;14.60;60.30
46309;DHT22;32037;50.820;6.494;2022-10-01T02:23:42;14.60;60.10
46309;DHT22;32037;50.820;6.494;2022-10-01T02:26:15;14.60;60.20
46309;DHT22;32037;50.820;6.494;2022-10-01T02:28:46;14.60;60.10
46309;DHT22;32037;50.820;6.494;2022-10-01T02:31:18;14.60;60.00
46309;DHT22;32037;50.820;6.494;2022-10-01T02:33:49;14.60;60.50
46309;DHT22;32037;50.820;6.494;2022-10-01T02:36:20;14.60;60.20
46309;DHT22;32037;50.820;6.494;2022-10-01T02:38:54;14.60;60.00
46309;DHT22;32037;50.820;6.494;2022-10-01T02:41:26;14.60;60.20
46309;DHT22;32037;50.820;6.494;2022-10-01T02:43:58;14.60;60.40
46309;DHT22;32037;50.820;6.494;2022-10-01T02:46:36;14.60;60.70
46309;DHT22;32037;50.820;6.494;2022-10-01T02:49:07;14.60;62.00
46309;DHT22;32037;50.820;6.494;2022-10-01T02:51:42;14.60;61.10
46309;DHT22;32037;50.820;6.494;2022-10-01T02:54:16;14.60;61.10
46309;DHT22;32037;50.820;6.494;2022-10-01T02:56:47;14.60;60.90
46309;DHT22;32037;50.820;6.494;2022-10-01T02:59:33;14.60;60.80
46309;DHT22;32037;50.820;6.494;2022-10-01T03:02:03;14.60;61.00
46309;DHT22;32037;50.820;6.494;2022-10-01T03:04:32;14.60;61.00
46309;DHT22;32037;50.820;6.494;2022-10-01T03:07:00;14.60;61.10
46309;DHT22;32037;50.820;6.494;2022-10-01T03:09:30;14.60;61.20
46309;DHT22;32037;50.820;6.494;2022-10-01T03:12:00;14.60;60.70
46309;DHT22;32037;50.820;6.494;2022-10-01T03:14:29;14.60;61.10
46309;DHT22;32037;50.820;6.494;2022-10-01T03:16:58;14.60;61.40
46309;DHT22;32037;50.820;6.494;2022-10-01T03:19:28;14.60;61.20
46309;DHT22;32037;50.820;6.494;2022-10-01T03:21:57;14.60;61.10
46309;DHT22;32037;50.820;6.494;2022-10-01T03:24:25;14.60;61.10
46309;DHT22;32037;50.820;6.494;2022-10-01T03:26:55;14.60;61.00
46309;DHT22;32037;50.820;6.494;2022-10-01T03:29:24;14.60;60.80
46309;DHT22;32037;50.820;6.494;2022-10-01T03:31:53;14.60;60.80
46309;DHT22;32037;50.820;6.494;2022-10-01T03:34:21;14.60;61.50
46309;DHT22;32037;50.820;6.494;2022-10-01T03:36:52;14.60;61.30
46309;DHT22;32037;50.820;6.494;2022-10-01T03:39:23;14.60;61.10
46309;DHT22;32037;50.820;6.494;2022-10-01T03:41:52;14.60;61.00
46309;DHT22;32037;50.820;6.494;2022-10-01T03:44:20;14.60;61.00
46309;DHT22;32037;50.820;6.494;2022-10-01T03:46:49;14.60;61.00
46309;DHT22;32037;50.820;6.494;2022-10-01T03:49:18;14.60;61.20
46309;DHT22;32037;50.820;6.494;2022-10-01T03:51:47;14.60;61.50
46309;DHT22;32037;50.820;6.494;2022-10-01T03:54:17;14.60;61.80
46309;DHT22;32037;50.820;6.494;2022-10-01T03:56:46;14.60;61.80
46309;DHT22;32037;50.820;6.494;2022-10-01T03:59:15;14.60;61.60
46309;DHT22;32037;50.820;6.494;2022-10-01T04:01:43;14.60;61.30
46309;DHT22;32037;50.820;6.494;2022-10-01T04:04:12;14.60;61.60
46309;DHT22;32037;50.820;6.494;2022-10-01T04:06:41;14.60;61.50
46309;DHT22;32037;50.820;6.494;2022-10-01T04:09:09;14.60;61.50
46309;DHT22;32037;50.820;6.494;2022-10-01T04:11:41;14.60;61.40
46309;DHT22;32037;50.820;6.494;2022-10-01T04:14:10;14.60;62.00
46309;DHT22;32037;50.820;6.494;2022-10-01T04:16:39;14.60;62.10
46309;DHT22;32037;50.820;6.494;2022-10-01T04:19:07;14.60;61.80
46309;DHT22;32037;50.820;6.494;2022-10-01T04:21:36;14.60;62.00
46309;DHT22;32037;50.820;6.494;2022-10-01T04:24:05;14.60;62.20
46309;DHT22;32037;50.820;6.494;2022-10-01T04:26:34;14.60;62.70
46309;DHT22;32037;50.820;6.494;2022-10-01T04:29:04;14.50;62.40
46309;DHT22;32037;50.820;6.494;2022-10-01T04:31:32;14.60;62.80
46309;DHT22;32037;50.820;6.494;2022-10-01T04:34:02;14.60;62.50
46309;DHT22;32037;50.820;6.494;2022-10-01T04:36:31;14.60;62.50
46309;DHT22;32037;50.820;6.494;2022-10-01T04:39:00;14.60;62.10
46309;DHT22;32037;50.820;6.494;2022-10-01T04:41:29;14.60;62.60
46309;DHT22;32037;50.820;6.494;2022-10-01T04:43:58;14.50;62.40
46309;DHT22;32037;50.820;6.494;2022-10-01T04:46:29;14.60;62.50
46309;DHT22;32037;50.820;6.494;2022-10-01T04:48:57;14.50;62.40
46309;DHT22;32037;50.820;6.494;2022-10-01T04:51:27;14.50;63.20
46309;DHT22;32037;50.820;6.494;2022-10-01T04:53:56;14.50;62.60
46309;DHT22;32037;50.820;6.494;2022-10-01T04:56:24;14.50;62.60
46309;DHT22;32037;50.820;6.494;2022-10-01T04:58:53;14.50;63.10
46309;DHT22;32037;50.820;6.494;2022-10-01T05:01:21;14.50;62.90
46309;DHT22;32037;50.820;6.494;2022-10-01T05:03:52;14.50;62.70
46309;DHT22;32037;50.820;6.494;2022-10-01T05:06:20;14.50;62.60
46309;DHT22;32037;50.820;6.494;2022-10-01T05:08:50;14.50;63.00
46309;DHT22;32037;50.820;6.494;2022-10-01T05:11:18;14.50;62.90
46309;DHT22;32037;50.820;6.494;2022-10-01T05:13:47;14.50;62.90
46309;DHT22;32037;50.820;6.494;2022-10-01T05:16:15;14.50;62.90
46309;DHT22;32037;50.820;6.494;2022-10-01T05:18:44;14.50;63.10
46309;DHT22;32037;50.820;6.494;2022-10-01T05:21:14;14.50;63.10
46309;DHT22;32037;50.820;6.494;2022-10-01T05:23:42;14.50;62.80
46309;DHT22;32037;50.820;6.494;2022-10-01T05:26:11;14.50;62.90
46309;DHT22;32037;50.820;6.494;2022-10-01T05:28:40;14.50;62.90
46309;DHT22;32037;50.820;6.494;2022-10-01T05:31:11;14.50;62.70
46309;DHT22;32037;50.820;6.494;2022-10-01T05:33:40;14.50;63.10
46309;DHT22;32037;50.820;6.494;2022-10-01T05:36:09;14.50;62.90
46309;DHT22;32037;50.820;6.494;2022-10-01T05:38:39;14.50;62.70
46309;DHT22;32037;50.820;6.494;2022-10-01T05:41:08;14.50;62.90
46309;DHT22;32037;50.820;6.494;2022-10-01T05:43:37;14.50;63.20
46309;DHT22;32037;50.820;6.494;2022-10-01T05:46:05;14.50;63.20
46309;DHT22;32037;50.820;6.494;2022-10-01T05:48:36;14.50;63.50
46309;DHT22;32037;50.820;6.494;2022-10-01T05:51:05;14.50;63.20
46309;DHT22;32037;50.820;6.494;2022-10-01T05:53:35;14.50;63.30
46309;DHT22;32037;50.820;6.494;2022-10-01T05:56:06;14.50;63.20
46309;DHT22;32037;50.820;6.494;2022-10-01T05:58:35;14.50;63.10
46309;DHT22;32037;50.820;6.494;2022-10-01T06:01:04;14.50;63.10
46309;DHT22;32037;50.820;6.494;2022-10-01T06:03:33;14.50;63.60
46309;DHT22;32037;50.820;6.494;2022-10-01T06:06:02;14.50;63.60
46309;DHT22;32037;50.820;6.494;2022-10-01T06:08:33;14.50;63.60
46309;DHT22;32037;50.820;6.494;2022-10-01T06:11:03;14.50;64.20
46309;DHT22;32037;50.820;6.494;2022-10-01T06:13:34;14.50;63.40
46309;DHT22;32037;50.820;6.494;2022-10-01T06:16:04;14.50;63.50
46309;DHT22;32037;50.820;6.494;2022-10-01T06:18:33;14.50;64.10
46309;DHT22;32037;50.820;6.494;2022-10-01T06:21:02;14.50;64.00
46309;DHT22;32037;50.820;6.494;2022-10-01T06:23:31;14.50;63.90
46309;DHT22;32037;50.820;6.494;2022-10-01T06:26:02;14.50;63.20
46309;DHT22;32037;50.820;6.494;2022-10-01T06:28:33;14.50;63.80
46309;DHT22;32037;50.820;6.494;2022-10-01T06:31:02;14.50;64.20
46309;DHT22;32037;50.820;6.494;2022-10-01T06:33:32;14.50;63.80
46309;DHT22;32037;50.820;6.494;2022-10-01T06:36:03;14.50;64.30
46309;DHT22;32037;50.820;6.494;2022-10-01T06:38:32;14.50;64.20
46309;DHT22;32037;50.820;6.494;2022-10-01T06:41:01;14.50;64.70
46309;DHT22;32037;50.820;6.494;2022-10-01T06:43:33;14.50;65.10
46309;DHT22;32037;50.820;6.494;2022-10-01T06:46:03;14.50;64.50
46309;DHT22;32037;50.820;6.494;2022-10-01T06:48:32;14.50;64.50
46309;DHT22;32037;50.820;6.494;2022-10-01T06:51:06;14.50;64.80
46309;DHT22;32037;50.820;6.494;2022-10-01T06:53:34;14.50;67.30
46309;DHT22;32037;50.820;6.494;2022-10-01T06:56:04;14.50;70.50
46309;DHT22;32037;50.820;6.494;2022-10-01T06:58:35;14.50;72.10
46309;DHT22;32037;50.820;6.494;2022-10-01T07:01:05;14.40;77.00
46309;DHT22;32037;50.820;6.494;2022-10-01T07:03:34;14.40;75.80
46309;DHT22;32037;50.820;6.494;2022-10-01T07:06:04;14.40;74.20
46309;DHT22;32037;50.820;6.494;2022-10-01T07:08:34;14.40;73.90
46309;DHT22;32037;50.820;6.494;2022-10-01T07:11:03;14.40;73.70
46309;DHT22;32037;50.820;6.494;2022-10-01T07:13:32;14.40;73.30
46309;DHT22;32037;50.820;6.494;2022-10-01T07:16:03;14.50;72.80
46309;DHT22;32037;50.820;6.494;2022-10-01T07:18:32;14.40;72.60
46309;DHT22;32037;50.820;6.494;2022-10-01T07:21:01;14.50;72.10
46309;DHT22;32037;50.820;6.494;2022-10-01T07:23:30;14.50;71.90
46309;DHT22;32037;50.820;6.494;2022-10-01T07:25:59;14.50;71.30
46309;DHT22;32037;50.820;6.494;2022-10-01T07:28:27;14.50;71.20
46309;DHT22;32037;50.820;6.494;2022-10-01T07:30:58;14.50;70.70
46309;DHT22;32037;50.820;6.494;2022-10-01T07:33:29;14.50;70.60
46309;DHT22;32037;50.820;6.494;2022-10-01T07:36:01;14.50;70.30
46309;DHT22;32037;50.820;6.494;2022-10-01T07:38:32;14.40;70.30
46309;DHT22;32037;50.820;6.494;2022-10-01T07:41:01;14.50;69.80
46309;DHT22;32037;50.820;6.494;2022-10-01T07:43:31;14.50;70.30
46309;DHT22;32037;50.820;6.494;2022-10-01T07:46:00;14.50;69.60
46309;DHT22;32037;50.820;6.494;2022-10-01T07:48:34;14.50;69.50
46309;DHT22;32037;50.820;6.494;2022-10-01T07:51:03;14.50;69.00
46309;DHT22;32037;50.820;6.494;2022-10-01T07:53:31;14.50;69.30
46309;DHT22;32037;50.820;6.494;2022-10-01T07:56:01;14.50;69.40
46309;DHT22;32037;50.820;6.494;2022-10-01T07:58:30;14.50;69.00
46309;DHT22;32037;50.820;6.494;2022-10-01T08:01:02;14.50;71.40
46309;DHT22;32037;50.820;6.494;2022-10-01T08:03:31;14.60;72.60
46309;DHT22;32037;50.820;6.494;2022-10-01T08:06:03;14.60;70.80
46309;DHT22;32037;50.820;6.494;2022-10-01T08:08:35;14.60;70.40
46309;DHT22;32037;50.820;6.494;2022-10-01T08:11:09;14.60;70.30
46309;DHT22;32037;50.820;6.494;2022-10-01T08:14:31;14.60;69.90
46309;DHT22;32037;50.820;6.494;2022-10-01T08:18:30;14.60;69.20
46309;DHT22;32037;50.820;6.494;2022-10-01T08:42:43;14.60;69.00
46309;DHT22;32037;50.820;6.494;2022-10-01T08:45:22;14.60;68.90
46309;DHT22;32037;50.820;6.494;2022-10-01T08:47:59;14.50;68.40
46309;DHT22;32037;50.820;6.494;2022-10-01T08:50:39;14.60;68.30
46309;DHT22;32037;50.820;6.494;2022-10-01T08:53:14;14.60;68.20
46309;DHT22;32037;50.820;6.494;2022-10-01T08:55:46;14.60;67.90
46309;DHT22;32037;50.820;6.494;2022-10-01T08:58:22;14.50;67.90
46309;DHT22;32037;50.820;6.494;2022-10-01T09:00:52;14.60;68.00
46309;DHT22;32037;50.820;6.494;2022-10-01T09:03:22;14.50;67.90
46309;DHT22;32037;50.820;6.494;2022-10-01T09:06:12;14.60;68.10
46309;DHT22;32037;50.820;6.494;2022-10-01T09:08:53;14.50;68.20
46309;DHT22;32037;50.820;6.494;2022-10-01T09:11:44;14.50;68.00
46309;DHT22;32037;50.820;6.494;2022-10-01T09:14:36;14.60;68.40
46309;DHT22;32037;50.820;6.494;2022-10-01T09:17:12;14.60;68.40
46309;DHT22;32037;50.820;6.494;2022-10-01T09:19:54;14.60;68.30
46309;DHT22;32037;50.820;6.494;2022-10-01T09:22:35;14.60;68.00
46309;DHT22;32037;50.820;6.494;2022-10-01T09:25:12;14.60;67.80
46309;DHT22;32037;50.820;6.494;2022-10-01T09:27:41;14.60;67.70
46309;DHT22;32037;50.820;6.494;2022-10-01T09:30:16;14.60;67.80
46309;DHT22;32037;50.820;6.494;2022-10-01T09:32:54;14.60;67.80
46309;DHT22;32037;50.820;6.494;2022-10-01T09:35:31;14.60;67.90
46309;DHT22;32037;50.820;6.494;2022-10-01T09:38:05;14.60;67.40
46309;DHT22;32037;50.820;6.494;2022-10-01T09:40:44;14.70;67.60
46309;DHT22;32037;50.820;6.494;2022-10-01T09:43:13;14.70;69.10
46309;DHT22;32037;50.820;6.494;2022-10-01T09:45:48;14.70;67.40
46309;DHT22;32037;50.820;6.494;2022-10-01T09:48:22;14.70;70.50
46309;DHT22;32037;50.820;6.494;2022-10-01T09:50:55;14.70;72.70
46309;DHT22;32037;50.820;6.494;2022-10-01T09:53:33;14.80;75.60
46309;DHT22;32037;50.820;6.494;2022-10-01T09:56:12;14.80;73.20
46309;DHT22;32037;50.820;6.494;2022-10-01T09:59:02;14.80;74.00
46309;DHT22;32037;50.820;6.494;2022-10-01T10:02:14;14.80;74.40
46309;DHT22;32037;50.820;6.494;2022-10-01T10:05:02;14.80;73.70
46309;DHT22;32037;50.820;6.494;2022-10-01T10:07:33;14.70;72.90
46309;DHT22;32037;50.820;6.494;2022-10-01T10:10:14;14.70;72.80
46309;DHT22;32037;50.820;6.494;2022-10-01T10:12:54;14.70;72.30
46309;DHT22;32037;50.820;6.494;2022-10-01T10:15:24;14.70;71.90
46309;DHT22;32037;50.820;6.494;2022-10-01T10:17:55;14.70;71.70
46309;DHT22;32037;50.820;6.494;2022-10-01T10:20:29;14.70;71.60
46309;DHT22;32037;50.820;6.494;2022-10-01T10:23:07;14.70;71.50
46309;DHT22;32037;50.820;6.494;2022-10-01T10:25:36;14.70;71.30
46309;DHT22;32037;50.820;6.494;2022-10-01T10:28:17;14.70;71.10
46309;DHT22;32037;50.820;6.494;2022-10-01T10:30:47;14.70;71.00
46309;DHT22;32037;50.820;6.494;2022-10-01T10:33:18;14.70;70.80
46309;DHT22;32037;50.820;6.494;2022-10-01T10:35:56;14.70;70.80
46309;DHT22;32037;50.820;6.494;2022-10-01T10:38:28;14.70;70.60
46309;DHT22;32037;50.820;6.494;2022-10-01T10:40:57;14.70;70.40
46309;DHT22;32037;50.820;6.494;2022-10-01T10:43:28;14.70;70.20
46309;DHT22;32037;50.820;6.494;2022-10-01T10:46:00;14.70;70.30
46309;DHT22;32037;50.820;6.494;2022-10-01T10:48:35;14.70;70.20
46309;DHT22;32037;50.820;6.494;2022-10-01T10:51:09;14.70;70.30
46309;DHT22;32037;50.820;6.494;2022-10-01T10:53:41;14.80;70.10
46309;DHT22;32037;50.820;6.494;2022-10-01T10:56:18;14.70;70.00
46309;DHT22;32037;50.820;6.494;2022-10-01T10:58:56;14.70;69.60
46309;DHT22;32037;50.820;6.494;2022-10-01T11:01:42;14.80;69.80
46309;DHT22;32037;50.820;6.494;2022-10-01T11:04:22;14.70;69.50
46309;DHT22;32037;50.820;6.494;2022-10-01T11:06:56;14.80;69.50
46309;DHT22;32037;50.820;6.494;2022-10-01T11:09:29;14.80;69.50
46309;DHT22;32037;50.820;6.494;2022-10-01T11:12:16;14.80;69.50
46309;DHT22;32037;50.820;6.494;2022-10-01T11:15:03;14.80;69.70
46309;DHT22;32037;50.820;6.494;2022-10-01T11:18:00;14.80;69.40
46309;DHT22;32037;50.820;6.494;2022-10-01T11:20:44;14.80;69.30
46309;DHT22;32037;50.820;6.494;2022-10-01T11:26:18;14.80;69.30
46309;DHT22;32037;50.820;6.494;2022-10-01T11:29:04;14.80;69.20
46309;DHT22;32037;50.820;6.494;2022-10-01T11:31:37;14.80;69.10
46309;DHT22;32037;50.820;6.494;2022-10-01T11:34:22;14.80;69.60
46309;DHT22;32037;50.820;6.494;2022-10-01T11:37:02;14.80;69.40
46309;DHT22;32037;50.820;6.494;2022-10-01T11:39:35;14.80;69.40
46309;DHT22;32037;50.820;6.494;2022-10-01T11:42:09;14.80;69.20
46309;DHT22;32037;50.820;6.494;2022-10-01T11:44:48;14.80;69.20
46309;DHT22;32037;50.820;6.494;2022-10-01T11:47:30;14.80;69.20
46309;DHT22;32037;50.820;6.494;2022-10-01T11:50:02;14.80;69.10
46309;DHT22;32037;50.820;6.494;2022-10-01T11:52:37;14.80;69.30
46309;DHT22;32037;50.820;6.494;2022-10-01T11:55:13;14.80;69.10
46309;DHT22;32037;50.820;6.494;2022-10-01T11:58:17;14.80;69.30
46309;DHT22;32037;50.820;6.494;2022-10-01T12:01:32;14.80;68.90
46309;DHT22;32037;50.820;6.494;2022-10-01T12:04:40;14.80;68.80
46309;DHT22;32037;50.820;6.494;2022-10-01T12:07:29;14.80;68.80
46309;DHT22;32037;50.820;6.494;2022-10-01T12:10:29;14.80;68.90
46309;DHT22;32037;50.820;6.494;2022-10-01T12:13:28;14.80;68.80
46309;DHT22;32037;50.820;6.494;2022-10-01T12:16:35;14.80;68.60
46309;DHT22;32037;50.820;6.494;2022-10-01T12:19:41;14.80;68.90
46309;DHT22;32037;50.820;6.494;2022-10-01T12:22:53;14.80;68.80
46309;DHT22;32037;50.820;6.494;2022-10-01T12:25:42;14.80;68.60
46309;DHT22;32037;50.820;6.494;2022-10-01T12:28:47;14.80;68.40
46309;DHT22;32037;50.820;6.494;2022-10-01T12:31:35;14.80;68.40
46309;DHT22;32037;50.820;6.494;2022-10-01T12:34:27;14.80;68.40
46309;DHT22;32037;50.820;6.494;2022-10-01T12:37:13;14.90;68.40
46309;DHT22;32037;50.820;6.494;2022-10-01T12:40:06;14.90;68.20
46309;DHT22;32037;50.820;6.494;2022-10-01T12:43:02;14.90;68.20
46309;DHT22;32037;50.820;6.494;2022-10-01T12:45:58;14.90;68.30
46309;DHT22;32037;50.820;6.494;2022-10-01T12:48:34;14.90;68.10
46309;DHT22;32037;50.820;6.494;2022-10-01T12:51:28;14.90;68.10
46309;DHT22;32037;50.820;6.494;2022-10-01T12:54:12;14.90;68.00
46309;DHT22;32037;50.820;6.494;2022-10-01T12:56:50;14.90;68.00
46309;DHT22;32037;50.820;6.494;2022-10-01T12:59:39;14.90;68.00
46309;DHT22;32037;50.820;6.494;2022-10-01T13:02:35;14.90;67.90
46309;DHT22;32037;50.820;6.494;2022-10-01T13:05:23;14.90;68.00
46309;DHT22;32037;50.820;6.494;2022-10-01T13:08:33;14.90;68.00
46309;DHT22;32037;50.820;6.494;2022-10-01T13:12:13;14.90;68.00
46309;DHT22;32037;50.820;6.494;2022-10-01T13:15:20;14.90;67.90
46309;DHT22;32037;50.820;6.494;2022-10-01T13:17:59;14.90;67.80
46309;DHT22;32037;50.820;6.494;2022-10-01T13:20:46;14.90;67.80
46309;DHT22;32037;50.820;6.494;2022-10-01T13:23:29;14.90;67.60
46309;DHT22;32037;50.820;6.494;2022-10-01T13:26:04;14.90;67.60
46309;DHT22;32037;50.820;6.494;2022-10-01T13:29:01;14.90;67.70
46309;DHT22;32037;50.820;6.494;2022-10-01T13:35:25;15.00;67.80
46309;DHT22;32037;50.820;6.494;2022-10-01T13:38:46;15.00;69.70
46309;DHT22;32037;50.820;6.494;2022-10-01T13:41:48;15.10;70.80
46309;DHT22;32037;50.820;6.494;2022-10-01T13:45:19;15.10;70.00
46309;DHT22;32037;50.820;6.494;2022-10-01T13:48:33;15.20;70.00
46309;DHT22;32037;50.820;6.494;2022-10-01T13:51:19;15.30;70.10
46309;DHT22;32037;50.820;6.494;2022-10-01T13:54:18;15.30;69.20
46309;DHT22;32037;50.820;6.494;2022-10-01T13:57:32;15.20;68.80
46309;DHT22;32037;50.820;6.494;2022-10-01T14:00:30;15.20;68.80
46309;DHT22;32037;50.820;6.494;2022-10-01T14:03:35;15.20;68.80
46309;DHT22;32037;50.820;6.494;2022-10-01T14:06:36;15.20;68.90
46309;DHT22;32037;50.820;6.494;2022-10-01T14:09:23;15.10;68.80
46309;DHT22;32037;50.820;6.494;2022-10-01T14:12:28;15.10;69.00
46309;DHT22;32037;50.820;6.494;2022-10-01T14:15:24;15.20;68.70
46309;DHT22;32037;50.820;6.494;2022-10-01T14:18:20;15.10;68.50
46309;DHT22;32037;50.820;6.494;2022-10-01T14:21:23;15.10;69.70
46309;DHT22;32037;50.820;6.494;2022-10-01T14:24:36;15.10;68.40
46309;DHT22;32037;50.820;6.494;2022-10-01T14:27:14;15.10;68.40
46309;DHT22;32037;50.820;6.494;2022-10-01T14:30:05;15.10;68.40
46309;DHT22;32037;50.820;6.494;2022-10-01T14:33:16;15.10;68.30
46309;DHT22;32037;50.820;6.494;2022-10-01T14:36:12;15.10;68.20
46309;DHT22;32037;50.820;6.494;2022-10-01T14:39:12;15.10;68.10
46309;DHT22;32037;50.820;6.494;2022-10-01T14:41:49;15.10;68.00
46309;DHT22;32037;50.820;6.494;2022-10-01T14:44:25;15.10;68.00
46309;DHT22;32037;50.820;6.494;2022-10-01T14:46:55;15.10;67.90
46309;DHT22;32037;50.820;6.494;2022-10-01T14:49:26;15.10;68.00
46309;DHT22;32037;50.820;6.494;2022-10-01T14:51:59;15.10;67.80
46309;DHT22;32037;50.820;6.494;2022-10-01T14:54:31;15.10;67.70
46309;DHT22;32037;50.820;6.494;2022-10-01T14:57:14;15.10;67.70
46309;DHT22;32037;50.820;6.494;2022-10-01T14:59:59;15.10;67.70
46309;DHT22;32037;50.820;6.494;2022-10-01T15:03:36;15.10;69.00
46309;DHT22;32037;50.820;6.494;2022-10-01T15:07:14;15.10;67.60
46309;DHT22;32037;50.820;6.494;2022-10-01T15:10:30;15.10;67.50
46309;DHT22;32037;50.820;6.494;2022-10-01T15:13:34;15.10;67.50
46309;DHT22;32037;50.820;6.494;2022-10-01T15:16:35;15.10;67.50
46309;DHT22;32037;50.820;6.494;2022-10-01T15:19:18;15.10;67.60
46309;DHT22;32037;50.820;6.494;2022-10-01T15:22:15;15.10;67.40
46309;DHT22;32037;50.820;6.494;2022-10-01T15:25:41;15.10;67.40
46309;DHT22;32037;50.820;6.494;2022-10-01T15:28:59;15.10;67.40
46309;DHT22;32037;50.820;6.494;2022-10-01T15:32:38;15.10;67.40
46309;DHT22;32037;50.820;6.494;2022-10-01T15:35:11;15.10;67.30
46309;DHT22;32037;50.820;6.494;2022-10-01T15:37:41;15.20;67.40
46309;DHT22;32037;50.820;6.494;2022-10-01T15:40:26;15.10;67.30
46309;DHT22;32037;50.820;6.494;2022-10-01T15:43:20;15.20;67.50
46309;DHT22;32037;50.820;6.494;2022-10-01T15:46:10;15.20;67.30
46309;DHT22;32037;50.820;6.494;2022-10-01T15:48:45;15.20;67.20
46309;DHT22;32037;50.820;6.494;2022-10-01T15:51:18;15.20;67.20
46309;DHT22;32037;50.820;6.494;2022-10-01T15:53:47;15.20;67.80
46309;DHT22;32037;50.820;6.494;2022-10-01T15:56:18;15.20;67.10
46309;DHT22;32037;50.820;6.494;2022-10-01T15:58:49;15.20;67.00
46309;DHT22;32037;50.820;6.494;2022-10-01T16:01:21;15.20;67.10
46309;DHT22;32037;50.820;6.494;2022-10-01T16:03:54;15.20;66.90
46309;DHT22;32037;50.820;6.494;2022-10-01T16:06:33;15.20;66.90
46309;DHT22;32037;50.820;6.494;2022-10-01T16:09:13;15.20;66.80
46309;DHT22;32037;50.820;6.494;2022-10-01T16:11:51;15.20;66.90
46309;DHT22;32037;50.820;6.494;2022-10-01T16:14:32;15.20;66.80
46309;DHT22;32037;50.820;6.494;2022-10-01T16:17:24;15.20;66.80
46309;DHT22;32037;50.820;6.494;2022-10-01T16:19:56;15.20;66.80
46309;DHT22;32037;50.820;6.494;2022-10-01T16:22:27;15.20;66.70
46309;DHT22;32037;50.820;6.494;2022-10-01T16:24:58;15.20;66.60
46309;DHT22;32037;50.820;6.494;2022-10-01T16:27:29;15.20;66.60
46309;DHT22;32037;50.820;6.494;2022-10-01T16:30:09;15.20;66.60
46309;DHT22;32037;50.820;6.494;2022-10-01T16:32:54;15.20;66.50
46309;DHT22;32037;50.820;6.494;2022-10-01T16:35:25;15.20;66.50
46309;DHT22;32037;50.820;6.494;2022-10-01T16:37:55;15.20;66.50
46309;DHT22;32037;50.820;6.494;2022-10-01T16:40:25;15.20;66.40
46309;DHT22;32037;50.820;6.494;2022-10-01T16:42:54;15.20;66.50
46309;DHT22;32037;50.820;6.494;2022-10-01T16:45:26;15.30;66.10
46309;DHT22;32037;50.820;6.494;2022-10-01T16:47:59;15.30;65.90
46309;DHT22;32037;50.820;6.494;2022-10-01T16:50:29;15.40;66.00
46309;DHT22;32037;50.820;6.494;2022-10-01T16:52:57;15.40;66.30
46309;DHT22;32037;50.820;6.494;2022-10-01T16:55:31;15.40;66.20
46309;DHT22;32037;50.820;6.494;2022-10-01T16:58:04;15.40;66.20
46309;DHT22;32037;50.820;6.494;2022-10-01T17:00:37;15.40;66.20
46309;DHT22;32037;50.820;6.494;2022-10-01T17:03:13;15.40;66.20
46309;DHT22;32037;50.820;6.494;2022-10-01T17:05:57;15.50;66.30
46309;DHT22;32037;50.820;6.494;2022-10-01T17:08:30;15.50;66.20
46309;DHT22;32037;50.820;6.494;2022-10-01T17:11:02;15.50;66.10
46309;DHT22;32037;50.820;6.494;2022-10-01T17:13:39;15.50;66.10